This is the latest recevied weather packets stored in our database for station/object DL8TF-13. If no packets are shown the sender has not sent any weather packets the latest 1 day(s).
| Time | Temp. | Humidity | Pressure | Rain* | Wind** | Luminosity | Snow |
|---|---|---|---|---|---|---|---|
| 1777769625 | 12.22° C | 57% | 984 hPa | - | - | - | - |
| 1777769025 | 12.22° C | 57% | 984 hPa | - | - | - | - |
| 1777768425 | 12.22° C | 58% | 984 hPa | - | - | - | - |
| 1777767825 | 12.78° C | 55% | 984 hPa | - | - | - | - |
| 1777767225 | 13.33° C | 53% | 984 hPa | - | - | - | - |
| 1777766625 | 13.89° C | 52% | 984 hPa | - | - | - | - |
| 1777766025 | 13.89° C | 52% | 984 hPa | - | - | - | - |
| 1777765425 | 13.33° C | 55% | 984 hPa | - | - | - | - |
| 1777764825 | 13.89° C | 51% | 984 hPa | - | - | - | - |
| 1777764225 | 14.44° C | 50% | 984 hPa | - | - | - | - |
| 1777763625 | 13.89° C | 51% | 984 hPa | - | - | - | - |
| 1777763025 | 14.44° C | 49% | 984 hPa | - | - | - | - |
| 1777762425 | 14.44° C | 51% | 984 hPa | - | - | - | - |
| 1777761825 | 13.89° C | 51% | 984 hPa | - | - | - | - |
| 1777761224 | 14.44° C | 50% | 984 hPa | - | - | - | - |
| 1777760624 | 15° C | 49% | 984 hPa | - | - | - | - |
| 1777760024 | 15° C | 49% | 984 hPa | - | - | - | - |
| 1777759424 | 15.56° C | 47% | 984 hPa | - | - | - | - |
| 1777758824 | 15° C | 48% | 984 hPa | - | - | - | - |
| 1777758224 | 15.56° C | 46% | 984 hPa | - | - | - | - |
| 1777757024 | 16.11° C | 45% | 984 hPa | - | - | - | - |
| 1777756424 | 16.11° C | 45% | 984 hPa | - | - | - | - |
| 1777755824 | 16.11° C | 45% | 984 hPa | - | - | - | - |
| 1777755224 | 16.67° C | 44% | 984 hPa | - | - | - | - |
| 1777754624 | 17.22° C | 43% | 984 hPa | - | - | - | - |
* Rain since midnight (hover to see other rain measurements)
** Current wind speed in m/s (hover to see current wind gust speed)